createdAt,value
2017-11-16T00:01:17.973Z,19.33
2017-11-16T00:03:45.214Z,23.40
2017-11-16T00:06:11.643Z,19.75
2017-11-16T00:08:38.055Z,16.58
2017-11-16T00:11:04.493Z,16.20
2017-11-16T00:13:30.954Z,14.27
2017-11-16T00:15:57.380Z,24.73
2017-11-16T00:18:24.595Z,21.90
2017-11-16T00:20:51.059Z,15.88
2017-11-16T00:23:18.290Z,14.65
2017-11-16T00:25:44.754Z,19.80
2017-11-16T00:28:11.912Z,19.85
2017-11-16T00:30:38.332Z,15.70
2017-11-16T00:33:05.534Z,16.25
2017-11-16T00:35:31.999Z,15.80
2017-11-16T00:37:58.396Z,16.98
2017-11-16T00:40:24.825Z,22.15
2017-11-16T00:42:51.227Z,30.45
2017-11-16T00:45:18.362Z,22.30
2017-11-16T00:47:45.550Z,35.90
2017-11-16T00:50:11.955Z,22.62
2017-11-16T00:52:39.102Z,17.80
2017-11-16T00:55:05.506Z,38.92
2017-11-16T00:57:31.938Z,28.87
2017-11-16T00:59:58.329Z,35.42
2017-11-16T01:02:24.745Z,33.97
2017-11-16T01:04:51.218Z,27.77
2017-11-16T01:07:17.602Z,33.70
2017-11-16T01:09:44.039Z,19.05
2017-11-16T01:12:11.184Z,18.90
2017-11-16T01:14:38.378Z,22.25
2017-11-16T01:17:04.831Z,39.95
2017-11-16T01:19:31.226Z,39.08
2017-11-16T01:21:57.658Z,22.10
2017-11-16T01:24:24.080Z,20.88
2017-11-16T01:26:50.491Z,17.52
2017-11-16T01:29:16.939Z,22.45
2017-11-16T01:31:43.426Z,19.83
2017-11-16T01:34:09.843Z,22.37
2017-11-16T01:36:37.004Z,18.45
2017-11-16T01:39:03.463Z,16.83
2017-11-16T01:41:29.918Z,17.00
2017-11-16T01:43:56.358Z,17.70
2017-11-16T01:46:22.798Z,16.75
2017-11-16T01:48:49.251Z,15.38
2017-11-16T01:51:15.656Z,17.33
2017-11-16T01:53:42.089Z,24.98
2017-11-16T01:56:08.530Z,19.48
2017-11-16T01:58:34.999Z,17.55
2017-11-16T02:01:01.486Z,17.90
2017-11-16T02:03:27.958Z,23.62
2017-11-16T02:05:55.142Z,17.67
2017-11-16T02:08:21.626Z,17.87
2017-11-16T02:10:48.086Z,24.85
2017-11-16T02:13:14.507Z,33.20
2017-11-16T02:15:40.949Z,30.50
2017-11-16T02:18:07.424Z,26.55
2017-11-16T02:20:34.660Z,13.75
2017-11-16T02:23:01.101Z,17.62
2017-11-16T02:25:28.276Z,17.50
2017-11-16T02:27:54.799Z,35.38
2017-11-16T02:30:21.277Z,26.80
2017-11-16T02:32:47.755Z,52.40
2017-11-16T02:35:14.996Z,17.52
2017-11-16T02:37:42.241Z,19.45
2017-11-16T02:40:08.744Z,36.78
2017-11-16T02:42:35.243Z,29.30
2017-11-16T02:45:01.734Z,20.48
2017-11-16T02:47:28.235Z,22.58
2017-11-16T02:49:54.695Z,20.27
2017-11-16T02:52:21.156Z,20.02
2017-11-16T02:54:48.404Z,18.08
2017-11-16T02:57:14.883Z,17.80
2017-11-16T02:59:41.348Z,18.30
2017-11-16T03:02:07.901Z,28.17
2017-11-16T03:04:34.336Z,18.08
2017-11-16T03:07:00.764Z,18.35
2017-11-16T03:09:27.982Z,17.45
2017-11-16T03:11:54.438Z,18.45
2017-11-16T03:14:20.870Z,17.58
2017-11-16T03:16:47.293Z,18.65
2017-11-16T03:19:13.761Z,16.23
2017-11-16T03:21:40.946Z,22.25
2017-11-16T03:24:07.390Z,28.58
2017-11-16T03:26:33.854Z,19.80
2017-11-16T03:29:00.312Z,21.83
2017-11-16T03:31:27.522Z,21.70
2017-11-16T03:33:53.974Z,35.63
2017-11-16T03:36:20.438Z,26.15
2017-11-16T03:38:47.626Z,27.15
2017-11-16T03:41:14.083Z,27.08
2017-11-16T03:43:40.535Z,26.83
2017-11-16T03:46:07.729Z,22.37
2017-11-16T03:48:34.153Z,23.35
2017-11-16T03:51:01.347Z,31.95
2017-11-16T03:53:27.800Z,27.27
2017-11-16T03:55:54.219Z,30.50
2017-11-16T03:58:20.634Z,33.03
2017-11-16T04:00:47.067Z,34.42
2017-11-16T04:03:13.501Z,36.00
2017-11-16T04:05:39.944Z,30.60
2017-11-16T04:08:06.400Z,33.95
2017-11-16T04:10:32.849Z,46.03
2017-11-16T04:12:59.302Z,35.33
2017-11-16T04:15:25.777Z,32.65
2017-11-16T04:17:52.206Z,34.30
2017-11-16T04:20:18.636Z,32.25
2017-11-16T04:22:45.153Z,34.20
2017-11-16T04:25:11.640Z,36.55
2017-11-16T04:27:38.958Z,38.20
2017-11-16T04:30:05.424Z,36.35
2017-11-16T04:32:32.616Z,43.13
2017-11-16T04:34:59.798Z,42.50
2017-11-16T04:37:26.234Z,42.58
2017-11-16T04:39:52.627Z,40.65
2017-11-16T04:42:19.064Z,41.33
2017-11-16T04:44:45.559Z,38.75
2017-11-16T04:47:12.722Z,43.33
2017-11-16T04:49:39.128Z,44.45
2017-11-16T04:52:06.318Z,42.08
2017-11-16T04:54:32.746Z,44.60
2017-11-16T04:56:59.131Z,42.33
2017-11-16T04:59:25.666Z,40.10
2017-11-16T05:01:52.108Z,40.92
2017-11-16T05:04:18.526Z,45.47
2017-11-16T05:06:45.745Z,46.15
2017-11-16T05:09:12.196Z,41.83
2017-11-16T05:11:38.634Z,43.90
2017-11-16T05:14:05.112Z,40.10
2017-11-16T05:16:32.289Z,42.47
2017-11-16T05:18:59.501Z,42.33
2017-11-16T05:21:26.007Z,54.10
2017-11-16T05:23:52.539Z,43.20
2017-11-16T05:26:19.054Z,40.78
2017-11-16T05:28:45.502Z,43.87
2017-11-16T05:31:11.954Z,43.05
2017-11-16T05:33:38.434Z,38.88
2017-11-16T05:36:04.902Z,42.33
2017-11-16T05:38:31.390Z,40.00
2017-11-16T05:40:58.566Z,37.67
2017-11-16T05:43:24.979Z,42.88
2017-11-16T05:45:51.430Z,38.30
2017-11-16T05:48:17.910Z,42.60
2017-11-16T05:50:44.378Z,37.35
2017-11-16T05:53:10.925Z,39.55
2017-11-16T05:55:38.111Z,41.55
2017-11-16T05:58:04.579Z,41.08
2017-11-16T06:00:31.031Z,43.60
2017-11-16T06:02:57.506Z,38.85
2017-11-16T06:05:24.008Z,41.33
2017-11-16T06:07:51.191Z,44.00
2017-11-16T06:10:17.629Z,44.53
2017-11-16T06:12:44.045Z,35.80
2017-11-16T06:15:10.518Z,41.92
2017-11-16T06:17:37.707Z,41.97
2017-11-16T06:20:04.916Z,59.80
2017-11-16T06:22:32.061Z,50.88
2017-11-16T06:24:58.522Z,54.67
2017-11-16T06:27:25.673Z,45.88
2017-11-16T06:29:52.162Z,41.35
2017-11-16T06:32:18.597Z,41.20
2017-11-16T06:34:45.004Z,41.30
2017-11-16T06:37:11.452Z,39.50
2017-11-16T06:39:37.899Z,40.25
2017-11-16T06:42:04.343Z,41.95
2017-11-16T06:44:30.739Z,43.10
2017-11-16T06:46:57.154Z,46.17
2017-11-16T06:49:24.300Z,41.83
2017-11-16T06:51:51.537Z,45.00
2017-11-16T06:54:18.706Z,48.13
2017-11-16T06:56:45.082Z,44.53
2017-11-16T06:59:11.502Z,42.78
2017-11-16T07:01:37.884Z,42.55
2017-11-16T07:04:04.335Z,42.97
2017-11-16T07:06:30.750Z,45.22
2017-11-16T07:08:57.170Z,39.28
2017-11-16T07:11:23.567Z,45.75
2017-11-16T07:13:49.994Z,37.85
2017-11-16T07:16:16.400Z,38.00
2017-11-16T07:18:43.602Z,42.60
2017-11-16T07:21:10.101Z,39.08
2017-11-16T07:23:36.506Z,49.30
2017-11-16T07:26:03.654Z,44.65
2017-11-16T07:28:30.815Z,36.25
2017-11-16T07:30:57.232Z,41.95
2017-11-16T07:33:23.644Z,41.95
2017-11-16T07:35:50.033Z,37.10
2017-11-16T07:38:16.506Z,38.50
2017-11-16T07:40:51.805Z,35.63
2017-11-16T07:43:18.323Z,38.78
2017-11-16T07:45:44.779Z,42.47
2017-11-16T07:48:11.221Z,37.05
2017-11-16T07:50:37.727Z,38.20
2017-11-16T07:53:04.197Z,40.25
2017-11-16T07:55:30.663Z,43.20
2017-11-16T07:57:57.078Z,35.40
2017-11-16T08:00:23.538Z,35.45
2017-11-16T08:02:50.682Z,38.05
2017-11-16T08:05:17.066Z,38.40
2017-11-16T08:07:43.514Z,40.75
2017-11-16T08:10:09.991Z,41.35
2017-11-16T08:12:36.416Z,34.92
2017-11-16T08:15:03.577Z,37.47
2017-11-16T08:17:30.022Z,39.83
2017-11-16T08:19:57.147Z,39.28
2017-11-16T08:22:24.409Z,41.40
2017-11-16T08:24:50.853Z,41.13
2017-11-16T08:27:17.266Z,34.47
2017-11-16T08:29:46.132Z,39.30
2017-11-16T08:32:14.441Z,37.13
2017-11-16T08:34:44.075Z,36.42
2017-11-16T08:37:11.742Z,35.72
2017-11-16T08:39:38.304Z,37.63
2017-11-16T08:42:04.786Z,39.50
2017-11-16T08:44:32.008Z,41.90
2017-11-16T08:46:59.206Z,38.20
2017-11-16T08:49:25.673Z,37.00
2017-11-16T08:51:52.200Z,40.83
2017-11-16T08:54:18.687Z,43.63
2017-11-16T08:56:45.171Z,43.67
2017-11-16T08:59:11.662Z,42.65
2017-11-16T09:01:38.138Z,40.55
2017-11-16T09:04:04.610Z,43.60
2017-11-16T09:06:31.814Z,36.45
2017-11-16T09:08:58.305Z,42.10
2017-11-16T09:11:25.491Z,42.13
2017-11-16T09:13:51.987Z,43.53
2017-11-16T09:16:18.447Z,42.25
2017-11-16T09:18:44.938Z,42.30
2017-11-16T09:21:11.372Z,37.80
2017-11-16T09:23:37.844Z,44.30
2017-11-16T09:26:04.306Z,40.55
2017-11-16T09:28:30.797Z,41.42
2017-11-16T09:30:57.283Z,43.45
2017-11-16T09:33:23.754Z,39.15
2017-11-16T09:35:50.347Z,45.92
2017-11-16T09:38:16.802Z,43.90
2017-11-16T09:40:43.206Z,39.25
2017-11-16T09:43:09.642Z,44.78
2017-11-16T09:45:36.055Z,36.95
2017-11-16T09:48:02.526Z,41.33
2017-11-16T09:50:29.026Z,43.53
2017-11-16T09:52:55.482Z,39.25
2017-11-16T09:55:21.915Z,46.33
2017-11-16T09:57:49.127Z,36.85
2017-11-16T10:00:15.602Z,37.20
2017-11-16T10:02:42.046Z,39.03
2017-11-16T10:05:09.309Z,41.55
2017-11-16T10:07:35.726Z,41.60
2017-11-16T10:10:03.099Z,42.05
2017-11-16T10:12:29.983Z,37.33
2017-11-16T10:14:56.370Z,41.90
2017-11-16T10:17:22.810Z,37.30
2017-11-16T10:19:49.259Z,41.42
2017-11-16T10:22:16.404Z,39.85
2017-11-16T10:24:42.817Z,41.45
2017-11-16T10:27:09.249Z,39.40
2017-11-16T10:29:35.643Z,38.55
2017-11-16T10:32:02.126Z,39.10
2017-11-16T10:34:28.591Z,40.12
2017-11-16T10:36:55.058Z,38.92
2017-11-16T10:39:21.492Z,39.13
2017-11-16T10:41:47.951Z,40.65
2017-11-16T10:44:14.403Z,40.00
2017-11-16T10:46:41.599Z,43.50
2017-11-16T10:49:08.109Z,41.13
2017-11-16T10:51:34.573Z,41.08
2017-11-16T10:54:01.075Z,36.63
2017-11-16T10:56:27.516Z,39.72
2017-11-16T10:58:54.003Z,38.35
2017-11-16T11:01:20.435Z,36.75
2017-11-16T11:03:46.844Z,39.42
2017-11-16T11:06:13.323Z,43.58
2017-11-16T11:08:40.505Z,39.08
2017-11-16T11:11:06.955Z,39.33
2017-11-16T11:13:33.428Z,38.75
2017-11-16T11:16:00.640Z,37.50
2017-11-16T11:18:27.122Z,42.33
2017-11-16T11:20:54.288Z,41.17
2017-11-16T11:23:21.475Z,38.72
2017-11-16T11:25:47.895Z,37.50
2017-11-16T11:28:14.306Z,40.80
2017-11-16T11:30:41.462Z,39.80
2017-11-16T11:33:07.976Z,41.35
2017-11-16T11:35:35.145Z,40.83
2017-11-16T11:38:01.624Z,38.47
2017-11-16T11:40:28.056Z,50.10
2017-11-16T11:42:55.419Z,49.72
2017-11-16T11:45:21.874Z,45.38
2017-11-16T11:47:48.305Z,42.47
2017-11-16T11:50:14.732Z,39.30
2017-11-16T11:52:41.156Z,43.92
2017-11-16T11:55:07.627Z,43.75
2017-11-16T11:57:34.792Z,45.60
2017-11-16T12:00:01.249Z,45.25
2017-11-16T12:02:27.759Z,47.65
2017-11-16T12:04:55.078Z,48.15
2017-11-16T12:07:21.567Z,41.78
2017-11-16T12:09:48.028Z,46.65
2017-11-16T12:12:14.499Z,44.80
2017-11-16T12:14:40.928Z,44.50
2017-11-16T12:17:07.371Z,44.22
2017-11-16T12:19:33.803Z,50.22
2017-11-16T12:22:00.304Z,40.28
2017-11-16T12:24:26.826Z,42.78
2017-11-16T12:26:53.252Z,55.42
2017-11-16T12:29:19.761Z,45.72
2017-11-16T12:31:46.244Z,39.00
2017-11-16T12:34:12.742Z,46.42
2017-11-16T12:36:39.235Z,42.30
2017-11-16T12:39:05.667Z,40.20
2017-11-16T12:41:32.148Z,46.30
2017-11-16T12:43:58.599Z,45.72
2017-11-16T12:46:25.080Z,42.72
2017-11-16T12:48:51.573Z,43.47
2017-11-16T12:51:18.639Z,47.78
2017-11-16T12:53:45.228Z,45.67
2017-11-16T12:56:11.679Z,46.47
2017-11-16T12:58:38.133Z,43.50
2017-11-16T13:01:05.337Z,42.50
2017-11-16T13:03:31.810Z,43.72
2017-11-16T13:05:58.279Z,47.30
2017-11-16T13:08:24.731Z,43.05
2017-11-16T13:10:51.954Z,51.70
2017-11-16T13:13:18.431Z,47.13
2017-11-16T13:15:44.840Z,40.88
2017-11-16T13:18:11.359Z,42.10
2017-11-16T13:20:37.814Z,42.13
2017-11-16T13:23:04.267Z,45.25
2017-11-16T13:25:30.728Z,45.38
2017-11-16T13:27:57.934Z,43.92
2017-11-16T13:30:24.357Z,46.92
2017-11-16T13:32:50.826Z,41.78
2017-11-16T13:35:17.225Z,46.55
2017-11-16T13:37:43.644Z,46.00
2017-11-16T13:40:10.149Z,43.13
2017-11-16T13:42:36.575Z,42.97
2017-11-16T13:45:03.751Z,38.22
2017-11-16T13:47:30.224Z,41.00
2017-11-16T13:49:56.688Z,39.67
2017-11-16T13:52:23.123Z,42.00
2017-11-16T13:54:49.568Z,39.05
2017-11-16T13:57:16.060Z,40.35
2017-11-16T13:59:42.450Z,48.15
2017-11-16T14:02:09.656Z,39.40
2017-11-16T14:04:36.116Z,43.38
2017-11-16T14:07:02.573Z,42.08
2017-11-16T14:09:29.704Z,47.15
2017-11-16T14:11:56.146Z,46.10
2017-11-16T14:14:23.328Z,43.72
2017-11-16T14:16:49.814Z,42.25
2017-11-16T14:19:16.231Z,48.58
2017-11-16T14:21:43.409Z,40.85
2017-11-16T14:24:09.801Z,42.55
2017-11-16T14:26:36.234Z,43.60
2017-11-16T14:29:02.695Z,47.85
2017-11-16T14:31:29.164Z,45.03
2017-11-16T14:33:55.603Z,45.70
2017-11-16T14:36:22.065Z,45.45
2017-11-16T14:38:48.527Z,46.13
2017-11-16T14:41:14.979Z,43.97
2017-11-16T14:43:41.439Z,48.15
2017-11-16T14:46:07.887Z,48.08
2017-11-16T14:48:34.393Z,41.58
2017-11-16T14:51:00.800Z,44.03
2017-11-16T14:53:27.276Z,47.17
2017-11-16T14:55:53.732Z,43.75
2017-11-16T14:58:20.190Z,44.63
2017-11-16T15:00:46.716Z,42.92
2017-11-16T15:03:13.180Z,42.88
2017-11-16T15:05:40.315Z,44.55
2017-11-16T15:08:07.491Z,44.75
2017-11-16T15:10:33.913Z,36.10
2017-11-16T15:13:00.356Z,55.85
2017-11-16T15:15:26.823Z,47.33
2017-11-16T15:17:53.240Z,45.30
2017-11-16T15:20:19.708Z,47.50
2017-11-16T15:22:46.144Z,47.45
2017-11-16T15:25:12.604Z,43.78
2017-11-16T15:27:39.757Z,43.20
2017-11-16T15:30:06.952Z,45.25
2017-11-16T15:32:33.432Z,52.17
2017-11-16T15:34:59.850Z,45.83
2017-11-16T15:37:26.271Z,45.55
2017-11-16T15:39:52.711Z,44.80
2017-11-16T15:42:19.184Z,42.97
2017-11-16T15:44:45.632Z,41.25
2017-11-16T15:47:12.046Z,50.95
2017-11-16T15:49:39.330Z,42.78
2017-11-16T15:52:05.759Z,39.60
2017-11-16T15:54:32.169Z,41.40
2017-11-16T15:56:58.635Z,42.83
2017-11-16T15:59:25.104Z,44.47
2017-11-16T16:01:51.546Z,42.22
2017-11-16T16:04:18.708Z,44.20
2017-11-16T16:06:45.894Z,40.80
2017-11-16T16:09:12.335Z,43.05
2017-11-16T16:11:38.822Z,40.85
2017-11-16T16:14:05.254Z,43.72
2017-11-16T16:16:31.715Z,44.20
2017-11-16T16:18:58.166Z,41.60
2017-11-16T16:21:24.608Z,41.83
2017-11-16T16:23:51.056Z,38.95
2017-11-16T16:26:17.457Z,42.85
2017-11-16T16:28:43.949Z,43.08
2017-11-16T16:31:11.222Z,44.10
2017-11-16T16:33:37.711Z,46.58
2017-11-16T16:36:04.148Z,57.10
2017-11-16T16:38:30.603Z,43.33
2017-11-16T16:40:57.054Z,47.03
2017-11-16T16:43:24.191Z,51.75
2017-11-16T16:45:51.368Z,53.35
2017-11-16T16:48:17.815Z,47.15
2017-11-16T16:50:44.250Z,49.60
2017-11-16T16:53:10.718Z,43.65
2017-11-16T16:55:37.326Z,50.33
2017-11-16T16:58:03.802Z,52.78
2017-11-16T17:00:30.972Z,57.35
2017-11-16T17:02:57.461Z,48.72
2017-11-16T17:08:27.177Z,46.78
2017-11-16T17:10:54.360Z,52.30
2017-11-16T17:13:20.801Z,51.85
2017-11-16T17:15:47.358Z,45.25
2017-11-16T17:18:13.829Z,47.08
2017-11-16T17:20:41.036Z,54.97
2017-11-16T17:23:07.569Z,51.28
2017-11-16T17:25:34.051Z,46.97
2017-11-16T17:28:01.241Z,44.65
2017-11-16T17:30:27.699Z,48.60
2017-11-16T17:32:54.166Z,49.58
2017-11-16T17:35:20.614Z,54.40
2017-11-16T17:37:47.084Z,50.42
2017-11-16T17:40:13.564Z,45.65
2017-11-16T17:42:40.809Z,51.08
2017-11-16T17:45:07.299Z,58.58
2017-11-16T17:47:33.760Z,44.35
2017-11-16T17:50:00.228Z,45.63
2017-11-16T17:52:26.720Z,49.60
2017-11-16T17:54:53.189Z,49.22
2017-11-16T17:57:20.378Z,50.88
2017-11-16T17:59:46.848Z,47.42
2017-11-16T18:02:13.280Z,53.55
2017-11-16T18:04:39.726Z,43.35
2017-11-16T18:07:06.444Z,51.47
2017-11-16T18:09:32.870Z,43.55
2017-11-16T18:11:59.300Z,47.65
2017-11-16T18:14:25.752Z,46.37
2017-11-16T18:16:52.250Z,62.65
2017-11-16T18:19:18.692Z,45.95
2017-11-16T18:21:45.277Z,49.13
2017-11-16T18:24:12.458Z,56.53
2017-11-16T18:26:38.932Z,45.25
2017-11-16T18:29:05.364Z,50.08
2017-11-16T18:31:31.856Z,50.33
2017-11-16T18:33:58.279Z,54.88
2017-11-16T18:36:24.706Z,53.03
2017-11-16T18:38:51.918Z,46.17
2017-11-16T18:41:19.092Z,47.97
2017-11-16T18:43:46.348Z,48.00
2017-11-16T18:46:12.831Z,48.42
2017-11-16T18:48:39.289Z,42.62
2017-11-16T18:51:05.779Z,49.92
2017-11-16T18:53:32.247Z,50.08
2017-11-16T18:55:58.767Z,53.50
2017-11-16T18:58:25.222Z,45.78
2017-11-16T19:00:51.706Z,43.70
2017-11-16T19:03:18.216Z,44.03
2017-11-16T19:05:45.422Z,43.28
2017-11-16T19:08:11.922Z,46.65
2017-11-16T19:10:38.416Z,51.10
2017-11-16T19:13:04.890Z,50.65
2017-11-16T19:15:31.357Z,52.00
2017-11-16T19:17:57.802Z,48.42
2017-11-16T19:20:24.297Z,41.97
2017-11-16T19:22:50.746Z,47.05
2017-11-16T19:25:17.168Z,45.47
2017-11-16T19:27:43.669Z,50.60
2017-11-16T19:30:10.144Z,49.78
2017-11-16T19:32:36.656Z,48.85
2017-11-16T19:35:03.809Z,53.40
2017-11-16T19:37:30.284Z,51.63
2017-11-16T19:39:56.738Z,51.17
2017-11-16T19:42:23.204Z,48.13
2017-11-16T19:44:50.410Z,55.42
2017-11-16T19:47:16.846Z,55.30
2017-11-16T19:49:43.358Z,55.12
2017-11-16T19:52:09.897Z,57.30
2017-11-16T19:54:36.353Z,56.72
2017-11-16T19:57:02.848Z,61.88
2017-11-16T19:59:29.290Z,53.33
2017-11-16T20:01:55.821Z,50.88
2017-11-16T20:04:22.369Z,49.83
2017-11-16T20:06:48.826Z,54.65
2017-11-16T20:09:15.307Z,55.92
2017-11-16T20:11:41.797Z,53.70
2017-11-16T20:14:08.255Z,51.13
2017-11-16T20:16:35.447Z,56.80
2017-11-16T20:22:01.626Z,55.65
2017-11-16T20:24:28.084Z,53.90
2017-11-16T20:26:55.300Z,61.05
2017-11-16T20:29:21.759Z,63.17
2017-11-16T20:31:48.240Z,58.17
2017-11-16T20:34:14.724Z,60.30
2017-11-16T20:36:45.891Z,59.50
2017-11-16T20:52:55.333Z,62.50
2017-11-16T20:55:23.587Z,68.37
2017-11-16T20:57:50.762Z,75.32
2017-11-16T21:00:17.245Z,61.60
2017-11-16T21:02:44.459Z,61.55
2017-11-16T21:05:10.958Z,73.32
2017-11-16T21:07:37.404Z,55.33
2017-11-16T21:10:03.874Z,55.42
2017-11-16T21:12:30.327Z,57.67
2017-11-16T21:14:56.855Z,58.58
2017-11-16T21:17:23.332Z,64.20
2017-11-16T21:19:49.815Z,60.70
2017-11-16T21:22:17.035Z,55.60
2017-11-16T21:24:43.444Z,56.80
2017-11-16T21:27:10.650Z,52.60
2017-11-16T21:29:37.067Z,54.63
2017-11-16T21:32:03.515Z,59.65
2017-11-16T21:34:30.043Z,53.38
2017-11-16T21:36:56.506Z,50.05
2017-11-16T21:39:22.935Z,62.80
2017-11-16T21:41:49.363Z,61.67
2017-11-16T21:44:15.846Z,63.55
2017-11-16T21:46:42.304Z,53.50
2017-11-16T21:49:08.835Z,58.22
2017-11-16T21:51:35.253Z,57.97
2017-11-16T21:54:01.711Z,53.22
2017-11-16T21:56:28.187Z,57.03
2017-11-16T21:58:54.636Z,51.63
2017-11-16T22:01:21.056Z,60.53
2017-11-16T22:03:47.544Z,57.33
2017-11-16T22:06:13.946Z,57.05
2017-11-16T22:08:40.407Z,52.03
2017-11-16T22:11:06.848Z,54.28
2017-11-16T22:13:33.303Z,57.08
2017-11-16T22:15:59.755Z,45.97
2017-11-16T22:18:26.255Z,40.83
2017-11-16T22:20:52.674Z,43.75
2017-11-16T22:23:19.137Z,47.40
2017-11-16T22:25:45.593Z,53.13
2017-11-16T22:28:12.746Z,50.05
2017-11-16T22:30:39.906Z,47.45
2017-11-16T22:33:06.362Z,50.12
2017-11-16T22:35:32.798Z,44.00
2017-11-16T22:37:59.270Z,47.33
2017-11-16T22:40:25.676Z,44.97
2017-11-16T22:42:52.222Z,50.85
2017-11-16T22:45:18.681Z,45.45
2017-11-16T22:47:45.869Z,51.95
2017-11-16T22:50:12.314Z,53.40
2017-11-16T22:52:38.776Z,55.22
2017-11-16T22:55:05.167Z,53.78
2017-11-16T22:57:31.580Z,52.85
2017-11-16T22:59:58.053Z,57.85
2017-11-16T23:02:24.485Z,63.13
2017-11-16T23:04:50.908Z,56.15
2017-11-16T23:07:17.350Z,57.13
2017-11-16T23:09:43.743Z,60.45
2017-11-16T23:12:10.962Z,51.00
2017-11-16T23:14:37.398Z,56.55
2017-11-16T23:17:04.567Z,55.10
2017-11-16T23:19:30.958Z,54.35
2017-11-16T23:21:58.140Z,56.37
2017-11-16T23:24:24.549Z,51.13
2017-11-16T23:26:51.004Z,59.22
2017-11-16T23:29:18.174Z,53.45
2017-11-16T23:31:45.330Z,55.78
2017-11-16T23:34:11.756Z,57.13
2017-11-16T23:36:38.879Z,54.80
2017-11-16T23:39:05.478Z,50.10
2017-11-16T23:41:31.887Z,49.60
2017-11-16T23:43:58.332Z,54.65
2017-11-16T23:46:24.785Z,50.97
2017-11-16T23:48:51.171Z,52.50
2017-11-16T23:51:18.312Z,58.70
2017-11-16T23:53:45.491Z,58.75
2017-11-16T23:56:12.662Z,63.00
2017-11-16T23:58:39.094Z,53.22
